Time;durP1;ratioP1;P1;durP2;ratioP2;P2;SDS_P1;SDS_P2;PMS_P1;PMS_P2;Temp;Humidity;BMP_temperature;BMP_pressure;BME280_temperature;BME280_humidity;BME280_pressure;Samples;Min_cycle;Max_cycle;Signal;HPM_P1;HPM_P2
2022/03/06 00:01:10;;;;;;;6.28;4.70;;;7.20;99.90;;;;;;5043326;28;20239;-53
2022/03/06 00:03:40;;;;;;;5.10;4.35;;;7.20;99.90;;;;;;5051554;28;20598;-52
2022/03/06 00:06:08;;;;;;;7.68;5.88;;;7.20;99.90;;;;;;5049831;28;20220;-53
2022/03/06 00:08:36;;;;;;;7.25;5.07;;;7.20;99.90;;;;;;5037432;28;20263;-53
2022/03/06 00:11:05;;;;;;;4.80;4.30;;;7.20;99.90;;;;;;5044473;28;20242;-53
2022/03/06 00:13:33;;;;;;;4.43;4.03;;;7.20;99.90;;;;;;5052043;28;20307;-54
2022/03/06 00:16:02;;;;;;;4.57;3.72;;;7.20;99.90;;;;;;5050210;28;20193;-53
2022/03/06 00:18:30;;;;;;;5.50;4.13;;;7.20;99.90;;;;;;5052418;28;20271;-52
2022/03/06 00:21:00;;;;;;;6.20;4.20;;;7.20;99.90;;;;;;5047901;28;20274;-54
2022/03/06 00:23:29;;;;;;;6.22;4.25;;;7.20;99.90;;;;;;5052525;28;20421;-53
2022/03/06 00:25:58;;;;;;;4.63;4.00;;;7.20;99.90;;;;;;5051994;28;20218;-53
2022/03/06 00:28:26;;;;;;;7.10;4.93;;;7.20;99.90;;;;;;5052216;28;20591;-54
2022/03/06 00:30:55;;;;;;;5.90;4.53;;;7.20;99.90;;;;;;5048083;28;20286;-53
2022/03/06 00:33:23;;;;;;;5.50;5.00;;;7.20;99.90;;;;;;5051869;28;20266;-54
2022/03/06 00:35:52;;;;;;;5.30;4.05;;;7.20;99.90;;;;;;5044022;28;20208;-53
2022/03/06 00:38:22;;;;;;;4.70;4.20;;;7.20;99.90;;;;;;5046308;28;20696;-53
2022/03/06 00:40:49;;;;;;;4.35;3.72;;;7.20;99.90;;;;;;5052392;28;20284;-51
2022/03/06 00:43:18;;;;;;;5.95;4.50;;;7.20;99.90;;;;;;5052231;28;20695;-53
2022/03/06 00:46:06;;;;;;;6.55;4.82;;;7.20;99.90;;;;;;5033091;28;20215;-53
2022/03/06 00:48:34;;;;;;;5.68;4.90;;;7.20;99.90;;;;;;5051056;28;20273;-53
2022/03/06 00:51:02;;;;;;;4.70;4.20;;;7.20;99.90;;;;;;5048662;28;20750;-53
2022/03/06 00:53:34;;;;;;;5.45;4.03;;;7.20;99.90;;;;;;5033473;28;20655;-52
2022/03/06 00:56:02;;;;;;;5.18;4.03;;;7.20;99.90;;;;;;5051704;28;20207;-53
2022/03/06 00:58:30;;;;;;;6.95;4.80;;;7.10;99.90;;;;;;5050948;28;20760;-52
2022/03/06 01:00:58;;;;;;;4.63;4.13;;;7.10;99.90;;;;;;5041940;28;20217;-53
2022/03/06 01:03:27;;;;;;;4.97;3.80;;;7.10;99.90;;;;;;5050154;28;20221;-54
2022/03/06 01:05:55;;;;;;;7.30;3.85;;;7.10;99.90;;;;;;5025366;28;20240;-52
2022/03/06 01:08:23;;;;;;;5.13;4.32;;;7.10;99.90;;;;;;5047802;28;20311;-53
2022/03/06 01:10:53;;;;;;;5.68;4.05;;;7.10;99.90;;;;;;5051047;28;20242;-53
2022/03/06 01:13:23;;;;;;;4.88;4.38;;;7.10;99.90;;;;;;5051151;28;20216;-53
2022/03/06 01:15:51;;;;;;;5.75;4.65;;;7.10;99.90;;;;;;5040457;28;20195;-52
2022/03/06 01:18:20;;;;;;;7.28;5.05;;;7.10;99.90;;;;;;5050214;28;20753;-53
2022/03/06 01:20:48;;;;;;;5.32;4.82;;;7.10;99.90;;;;;;5044597;28;20355;-52
2022/03/06 01:23:16;;;;;;;5.40;4.32;;;7.10;99.90;;;;;;5051324;28;20594;-52
2022/03/06 01:25:44;;;;;;;7.75;4.28;;;7.10;99.90;;;;;;5052022;28;20201;-54
2022/03/06 01:28:14;;;;;;;7.60;5.15;;;7.10;99.90;;;;;;5050901;28;20252;-52
2022/03/06 01:30:42;;;;;;;4.63;4.22;;;7.10;99.90;;;;;;5050745;28;20247;-53
2022/03/06 01:33:10;;;;;;;5.57;4.80;;;7.10;99.90;;;;;;5032425;28;20253;-53
2022/03/06 01:35:38;;;;;;;5.90;5.30;;;7.10;99.90;;;;;;5049044;28;20180;-54
2022/03/06 01:38:06;;;;;;;4.50;3.60;;;7.10;99.90;;;;;;5032346;28;20225;-53
2022/03/06 01:40:35;;;;;;;4.53;4.03;;;7.10;99.90;;;;;;5047578;28;20208;-53
2022/03/06 01:43:03;;;;;;;6.05;5.03;;;7.10;99.90;;;;;;5050395;28;20774;-53
2022/03/06 01:45:32;;;;;;;5.57;4.25;;;7.10;99.90;;;;;;5041173;28;20217;-52
2022/03/06 01:48:03;;;;;;;6.05;4.75;;;7.10;99.90;;;;;;5049465;28;20247;-52
2022/03/06 01:50:33;;;;;;;6.70;4.30;;;7.10;99.90;;;;;;5050304;28;20184;-54
2022/03/06 01:53:04;;;;;;;5.50;4.95;;;7.10;99.90;;;;;;5050220;28;20636;-53
2022/03/06 01:55:32;;;;;;;4.10;3.70;;;7.00;99.90;;;;;;5050645;28;20192;-52
2022/03/06 01:58:04;;;;;;;5.07;4.35;;;7.00;99.90;;;;;;5049538;28;20224;-53
2022/03/06 02:00:36;;;;;;;6.07;4.30;;;7.00;99.90;;;;;;5037341;28;20819;-54
2022/03/06 02:03:05;;;;;;;4.38;3.92;;;7.00;99.90;;;;;;5049969;28;20217;-53
2022/03/06 02:05:34;;;;;;;5.60;4.32;;;7.00;99.90;;;;;;5044240;28;20217;-53
2022/03/06 02:08:03;;;;;;;4.97;4.47;;;7.00;99.90;;;;;;5046625;28;20239;-53
2022/03/06 02:10:31;;;;;;;4.15;3.72;;;7.00;99.90;;;;;;5032278;28;20560;-53
2022/03/06 02:12:59;;;;;;;6.85;4.90;;;7.00;99.90;;;;;;5049264;28;20246;-54
2022/03/06 02:15:28;;;;;;;4.53;4.05;;;7.00;99.90;;;;;;5034541;28;20185;-54
2022/03/06 02:17:58;;;;;;;4.50;4.10;;;7.00;99.90;;;;;;5045885;28;20295;-53
2022/03/06 02:20:28;;;;;;;7.25;5.03;;;7.00;99.90;;;;;;5045749;28;20185;-53
2022/03/06 02:22:58;;;;;;;6.65;4.80;;;7.00;99.90;;;;;;5045518;28;20224;-52
2022/03/06 02:25:28;;;;;;;5.07;4.60;;;7.00;99.90;;;;;;5050478;28;20676;-53
2022/03/06 02:27:58;;;;;;;5.07;4.05;;;7.00;99.90;;;;;;5048858;28;20224;-53
2022/03/06 02:30:30;;;;;;;5.57;4.03;;;7.00;99.90;;;;;;5040726;28;20295;-53
2022/03/06 02:33:02;;;;;;;6.55;4.25;;;7.00;99.90;;;;;;5049462;28;20697;-53
2022/03/06 02:35:30;;;;;;;6.15;3.95;;;7.00;99.90;;;;;;5047398;28;20199;-53
2022/03/06 02:38:00;;;;;;;5.20;4.25;;;7.00;99.90;;;;;;5049336;28;20251;-53
2022/03/06 02:40:28;;;;;;;6.13;4.10;;;7.00;99.90;;;;;;5048885;28;20253;-54
2022/03/06 02:42:57;;;;;;;6.03;4.82;;;6.90;99.90;;;;;;5048074;28;20695;-53
2022/03/06 02:45:27;;;;;;;5.15;4.30;;;7.00;99.90;;;;;;5014097;28;20237;-53
2022/03/06 02:47:57;;;;;;;5.97;3.92;;;6.90;99.90;;;;;;5047330;28;20269;-54
2022/03/06 02:50:31;;;;;;;5.15;4.40;;;6.90;99.90;;;;;;5043491;28;20180;-54
2022/03/06 02:53:02;;;;;;;5.15;4.65;;;6.90;99.90;;;;;;5049086;28;20221;-52
2022/03/06 02:55:31;;;;;;;5.82;4.50;;;6.90;99.90;;;;;;5049682;28;20655;-53
2022/03/06 02:57:59;;;;;;;5.78;4.03;;;6.90;99.90;;;;;;5046040;28;20307;-53
2022/03/06 03:00:27;;;;;;;6.05;4.20;;;6.90;99.90;;;;;;5032462;28;20198;-55
2022/03/06 03:02:56;;;;;;;5.15;4.65;;;6.90;99.90;;;;;;5048774;28;20231;-53
2022/03/06 03:05:25;;;;;;;4.50;4.10;;;6.90;99.90;;;;;;5048172;28;20564;-52
2022/03/06 03:07:54;;;;;;;4.03;3.50;;;6.90;99.90;;;;;;5031006;28;20216;-52
2022/03/06 03:10:25;;;;;;;5.30;4.10;;;6.90;99.90;;;;;;5050172;28;20216;-53
2022/03/06 03:12:55;;;;;;;4.22;3.83;;;6.90;99.90;;;;;;5048755;28;21488;-52
2022/03/06 03:15:24;;;;;;;5.22;4.40;;;6.90;99.90;;;;;;5047853;28;20274;-54
2022/03/06 03:17:52;;;;;;;5.40;4.80;;;6.90;99.90;;;;;;5047731;28;20212;-53
2022/03/06 03:20:21;;;;;;;5.30;4.80;;;6.90;99.90;;;;;;5047784;28;20697;-54
2022/03/06 03:22:51;;;;;;;4.60;3.65;;;6.90;99.90;;;;;;5048413;28;20506;-53
2022/03/06 03:25:19;;;;;;;5.70;4.22;;;6.90;99.90;;;;;;5049392;28;20201;-53
2022/03/06 03:27:48;;;;;;;4.60;3.90;;;6.90;99.90;;;;;;5048587;28;20247;-54
2022/03/06 03:30:16;;;;;;;5.07;4.10;;;6.90;99.90;;;;;;5044872;28;20311;-53
2022/03/06 03:32:47;;;;;;;5.55;4.90;;;6.80;99.90;;;;;;5049552;28;20687;-53
2022/03/06 03:35:16;;;;;;;4.38;3.97;;;6.80;99.90;;;;;;5049653;28;20327;-52
2022/03/06 03:37:44;;;;;;;5.25;4.55;;;6.80;99.90;;;;;;5050803;28;20189;-52
2022/03/06 03:40:13;;;;;;;4.70;4.20;;;6.80;99.90;;;;;;5053986;28;20283;-54
2022/03/06 03:42:41;;;;;;;5.72;4.82;;;6.80;99.90;;;;;;5051595;28;20224;-53
2022/03/06 03:45:11;;;;;;;5.15;4.65;;;6.80;99.90;;;;;;5035852;28;20189;-53
2022/03/06 03:47:39;;;;;;;5.15;4.45;;;6.80;99.90;;;;;;5033693;28;20235;-53
2022/03/06 03:50:08;;;;;;;5.80;4.43;;;6.80;99.90;;;;;;5051366;28;20272;-51
2022/03/06 03:52:37;;;;;;;4.38;3.97;;;6.80;99.90;;;;;;5049012;28;20567;-53
2022/03/06 03:55:06;;;;;;;5.80;4.20;;;6.80;99.90;;;;;;5052942;28;20230;-53
2022/03/06 03:57:34;;;;;;;4.90;3.92;;;6.80;99.90;;;;;;5051352;28;20249;-54
2022/03/06 04:00:02;;;;;;;5.93;4.25;;;6.80;99.90;;;;;;5046359;28;20190;-53
2022/03/06 04:02:35;;;;;;;5.00;4.50;;;6.80;99.90;;;;;;5051807;28;20324;-52
2022/03/06 04:05:05;;;;;;;6.53;4.72;;;6.80;99.90;;;;;;5052490;28;20197;-54
2022/03/06 04:07:34;;;;;;;4.70;4.30;;;6.80;99.90;;;;;;5051829;28;20631;-54
2022/03/06 04:10:02;;;;;;;5.60;4.95;;;6.80;99.90;;;;;;5053117;28;20192;-53
2022/03/06 04:12:30;;;;;;;4.25;3.58;;;6.80;99.90;;;;;;5051981;28;20232;-53
2022/03/06 04:14:59;;;;;;;5.60;5.05;;;6.80;99.90;;;;;;5046888;28;20232;-52
2022/03/06 04:17:27;;;;;;;5.57;4.70;;;6.80;99.90;;;;;;5050744;28;20189;-53
2022/03/06 04:19:56;;;;;;;4.15;3.75;;;6.80;99.90;;;;;;5052319;28;20664;-53
2022/03/06 04:22:25;;;;;;;4.93;3.65;;;6.80;99.90;;;;;;5046438;28;20212;-53
2022/03/06 04:24:53;;;;;;;6.63;5.38;;;6.80;99.90;;;;;;5052291;28;20251;-54
2022/03/06 04:27:24;;;;;;;4.70;3.65;;;6.70;99.90;;;;;;5052157;28;20292;-53
2022/03/06 04:29:53;;;;;;;8.00;4.93;;;6.70;99.90;;;;;;5048992;28;20248;-52
2022/03/06 04:32:22;;;;;;;5.75;4.28;;;6.70;99.90;;;;;;5052575;28;20221;-54
2022/03/06 04:34:51;;;;;;;5.25;4.10;;;6.70;99.90;;;;;;5050424;28;20671;-53
2022/03/06 04:37:20;;;;;;;4.95;4.40;;;6.70;99.90;;;;;;5051321;28;20199;-53
2022/03/06 04:39:48;;;;;;;5.05;4.10;;;6.70;99.90;;;;;;5034007;28;20644;-54
2022/03/06 04:42:17;;;;;;;4.78;4.38;;;6.70;99.90;;;;;;5051517;28;20259;-52
2022/03/06 04:44:46;;;;;;;5.28;4.25;;;6.70;99.90;;;;;;5049311;28;20239;-53
2022/03/06 04:47:15;;;;;;;4.85;4.18;;;6.70;99.90;;;;;;5052100;28;20208;-53
2022/03/06 04:49:43;;;;;;;5.13;4.57;;;6.70;99.90;;;;;;5051205;28;20311;-53
2022/03/06 04:52:11;;;;;;;3.90;3.50;;;6.70;99.90;;;;;;5045374;28;20220;-52
2022/03/06 04:54:40;;;;;;;5.13;4.38;;;6.70;99.90;;;;;;5046433;28;20296;-53
2022/03/06 04:57:09;;;;;;;5.30;4.60;;;6.70;99.90;;;;;;5043590;28;20184;-54
2022/03/06 04:59:37;;;;;;;5.80;4.10;;;6.70;99.90;;;;;;5051434;28;20269;-52
2022/03/06 05:02:05;;;;;;;6.18;4.50;;;6.70;99.90;;;;;;5030201;28;20216;-52
2022/03/06 05:04:34;;;;;;;5.00;4.13;;;6.70;99.90;;;;;;5050856;28;20755;-54
2022/03/06 05:07:02;;;;;;;5.53;4.60;;;6.70;99.90;;;;;;5048283;28;20227;-54
2022/03/06 05:09:30;;;;;;;6.68;4.70;;;6.70;99.90;;;;;;5049891;28;20212;-54
2022/03/06 05:12:00;;;;;;;5.15;4.20;;;6.70;99.90;;;;;;5051170;28;20236;-55
2022/03/06 05:14:28;;;;;;;5.88;4.30;;;6.60;99.90;;;;;;5048774;28;20692;-53
2022/03/06 05:16:56;;;;;;;4.90;4.45;;;6.60;99.90;;;;;;5051474;28;20533;-52
2022/03/06 05:19:24;;;;;;;5.53;4.28;;;6.60;99.90;;;;;;5050443;28;20553;-53
2022/03/06 05:21:58;;;;;;;5.47;4.30;;;6.60;99.90;;;;;;5046821;28;20203;-53
2022/03/06 05:24:26;;;;;;;4.18;3.47;;;6.60;99.90;;;;;;5047096;28;20209;-54
2022/03/06 05:26:55;;;;;;;5.78;4.30;;;6.60;99.90;;;;;;5032794;28;20201;-52
2022/03/06 05:29:24;;;;;;;5.65;4.05;;;6.60;99.90;;;;;;5030817;28;20776;-54
2022/03/06 05:31:53;;;;;;;5.32;4.65;;;6.60;99.90;;;;;;5045505;28;20209;-53
2022/03/06 05:34:21;;;;;;;4.80;3.90;;;6.60;99.90;;;;;;5048858;28;20220;-52
2022/03/06 05:36:49;;;;;;;5.05;3.90;;;6.60;99.90;;;;;;5035472;28;20246;-53
2022/03/06 05:39:18;;;;;;;4.97;4.20;;;6.60;99.90;;;;;;5050668;28;20216;-54
2022/03/06 05:41:46;;;;;;;4.55;3.83;;;6.60;99.90;;;;;;5050766;28;20666;-53
2022/03/06 05:44:14;;;;;;;6.70;5.47;;;6.60;99.90;;;;;;5050265;28;20244;-54
2022/03/06 05:46:43;;;;;;;6.63;4.50;;;6.60;99.90;;;;;;5049500;28;20204;-53
2022/03/06 05:49:13;;;;;;;6.18;4.72;;;6.60;99.90;;;;;;5050432;28;20753;-52
2022/03/06 05:51:42;;;;;;;7.35;4.63;;;6.60;99.90;;;;;;5044315;28;20266;-52
2022/03/06 05:54:10;;;;;;;4.88;4.38;;;6.50;99.90;;;;;;5049074;28;20319;-52
2022/03/06 05:56:40;;;;;;;4.82;4.05;;;6.50;99.90;;;;;;5049854;28;20238;-55
2022/03/06 05:59:08;;;;;;;5.50;4.30;;;6.50;99.90;;;;;;5049900;28;20228;-53
2022/03/06 06:01:39;;;;;;;4.70;4.00;;;6.50;99.90;;;;;;5044519;28;20622;-53
2022/03/06 06:04:09;;;;;;;6.35;4.70;;;6.50;99.90;;;;;;5050036;28;20224;-53
2022/03/06 06:06:38;;;;;;;4.75;4.25;;;6.50;99.90;;;;;;5049488;28;20296;-52
2022/03/06 06:09:07;;;;;;;5.82;4.22;;;6.50;99.90;;;;;;5049350;28;20747;-53
2022/03/06 06:11:36;;;;;;;6.00;4.47;;;6.50;99.90;;;;;;5050685;28;20256;-52
2022/03/06 06:14:04;;;;;;;5.15;4.13;;;6.50;99.90;;;;;;5046438;28;20220;-55
2022/03/06 06:16:48;;;;;;;5.20;4.60;;;6.50;99.90;;;;;;5049240;28;20246;-53
2022/03/06 06:19:18;;;;;;;5.18;4.68;;;6.50;99.90;;;;;;5049815;28;20212;-52
2022/03/06 06:21:47;;;;;;;5.47;4.60;;;6.50;99.90;;;;;;5034755;28;20698;-52
2022/03/06 06:24:16;;;;;;;4.55;4.10;;;6.50;99.90;;;;;;5049483;28;20312;-52
2022/03/06 06:26:49;;;;;;;5.95;4.43;;;6.50;99.90;;;;;;5049918;28;20188;-53
2022/03/06 06:29:17;;;;;;;6.47;4.22;;;6.40;99.90;;;;;;5047608;28;20212;-53
2022/03/06 06:31:46;;;;;;;5.50;4.07;;;6.50;99.90;;;;;;5049912;28;20657;-52
2022/03/06 06:34:15;;;;;;;4.35;3.95;;;6.50;99.90;;;;;;5049396;28;20289;-53
2022/03/06 06:36:44;;;;;;;5.35;4.10;;;6.40;99.90;;;;;;5043275;28;20613;-53
2022/03/06 06:39:17;;;;;;;5.97;3.92;;;6.40;99.90;;;;;;5049528;28;20710;-52
2022/03/06 06:41:46;;;;;;;4.65;3.72;;;6.40;99.90;;;;;;5051405;28;20287;-53
2022/03/06 06:44:17;;;;;;;5.40;4.07;;;6.40;99.90;;;;;;5047808;28;20220;-53
2022/03/06 06:46:46;;;;;;;4.53;4.13;;;6.40;99.90;;;;;;5049714;28;20192;-53
2022/03/06 06:49:15;;;;;;;4.88;4.25;;;6.40;99.90;;;;;;5050061;28;20274;-51
2022/03/06 06:51:44;;;;;;;4.65;3.85;;;6.40;99.90;;;;;;5042037;28;20640;-55
2022/03/06 06:54:13;;;;;;;4.32;3.92;;;6.40;99.90;;;;;;5049309;28;20224;-53
2022/03/06 06:56:41;;;;;;;4.63;4.05;;;6.40;99.90;;;;;;5032120;28;20548;-53
2022/03/06 06:59:10;;;;;;;6.35;4.18;;;6.40;99.90;;;;;;5048421;28;20216;-52
2022/03/06 07:01:39;;;;;;;5.20;4.68;;;6.40;99.90;;;;;;5049534;28;20208;-54
2022/03/06 07:04:09;;;;;;;5.03;3.85;;;6.40;99.90;;;;;;5039566;28;20290;-54
2022/03/06 07:06:37;;;;;;;5.25;4.38;;;6.40;99.90;;;;;;5043664;28;20235;-54
2022/03/06 07:09:07;;;;;;;6.15;4.50;;;6.40;99.90;;;;;;5052727;28;20220;-53
2022/03/06 07:11:42;;;;;;;5.53;4.00;;;6.40;99.90;;;;;;5051476;28;20570;-54
2022/03/06 07:14:11;;;;;;;6.47;5.05;;;6.40;99.90;;;;;;5049228;28;20219;-53
2022/03/06 07:16:41;;;;;;;4.75;4.25;;;6.40;99.90;;;;;;5052948;28;20188;-53
2022/03/06 07:19:10;;;;;;;6.25;4.97;;;6.40;99.90;;;;;;5052743;28;20730;-54
2022/03/06 07:21:39;;;;;;;5.40;4.20;;;6.40;99.90;;;;;;5038478;28;20635;-52
2022/03/06 07:24:09;;;;;;;5.68;4.55;;;6.30;99.90;;;;;;5052737;28;20618;-53
2022/03/06 07:26:38;;;;;;;5.93;4.43;;;6.30;99.90;;;;;;5053591;28;20219;-53
2022/03/06 07:29:07;;;;;;;5.28;4.78;;;6.30;99.90;;;;;;5046518;28;20216;-53
2022/03/06 07:31:36;;;;;;;4.63;4.22;;;6.30;99.90;;;;;;5046087;28;20216;-55
2022/03/06 07:34:05;;;;;;;5.07;4.20;;;6.30;99.90;;;;;;5052890;28;20234;-53
2022/03/06 07:36:34;;;;;;;4.93;4.30;;;6.30;99.90;;;;;;5044744;28;20184;-52
2022/03/06 07:39:03;;;;;;;5.63;4.05;;;6.30;99.90;;;;;;5053590;28;20228;-55
2022/03/06 07:41:33;;;;;;;5.55;4.22;;;6.30;99.90;;;;;;5053116;28;20227;-53
2022/03/06 07:44:02;;;;;;;5.20;4.05;;;6.30;99.90;;;;;;5046138;28;20247;-53
2022/03/06 07:46:31;;;;;;;5.35;4.00;;;6.30;99.90;;;;;;5053021;28;20663;-53
2022/03/06 07:49:01;;;;;;;5.70;3.95;;;6.30;99.90;;;;;;5051595;28;20290;-53
2022/03/06 07:51:30;;;;;;;4.85;4.35;;;6.30;99.90;;;;;;5049774;28;20224;-54
2022/03/06 07:53:58;;;;;;;5.82;4.10;;;6.30;99.90;;;;;;5052371;28;20248;-53
2022/03/06 07:56:27;;;;;;;4.75;3.78;;;6.30;99.90;;;;;;5052809;28;20277;-53
2022/03/06 07:58:57;;;;;;;5.80;4.50;;;6.30;99.90;;;;;;5053341;28;20232;-53
2022/03/06 08:01:26;;;;;;;4.78;3.85;;;6.30;99.90;;;;;;5043954;28;20212;-53
2022/03/06 08:03:55;;;;;;;4.90;4.18;;;6.30;99.90;;;;;;5052781;28;20886;-55
2022/03/06 08:06:24;;;;;;;6.13;5.50;;;6.30;99.90;;;;;;5046090;28;20193;-54
2022/03/06 08:09:11;;;;;;;5.80;3.88;;;6.30;99.90;;;;;;5040342;28;20224;-53
2022/03/06 08:12:00;;;;;;;5.15;4.65;;;6.20;99.90;;;;;;5035720;28;20290;-52
2022/03/06 08:14:43;;;;;;;6.88;5.65;;;6.20;99.90;;;;;;5040461;28;20225;-54
2022/03/06 08:17:13;;;;;;;6.65;4.70;;;6.20;99.90;;;;;;5043882;28;20193;-53
2022/03/06 08:19:42;;;;;;;4.38;3.97;;;6.20;99.90;;;;;;5050190;28;20208;-53
2022/03/06 08:22:13;;;;;;;5.40;3.90;;;6.30;99.90;;;;;;5049924;28;20227;-54
2022/03/06 08:24:42;;;;;;;5.47;3.95;;;6.30;99.90;;;;;;5051738;28;20224;-53
2022/03/06 08:27:11;;;;;;;7.05;4.47;;;6.30;99.90;;;;;;5052641;28;20645;-53
2022/03/06 08:29:41;;;;;;;4.70;4.20;;;6.30;99.90;;;;;;5038960;28;20244;-53
2022/03/06 08:32:10;;;;;;;5.05;3.95;;;6.30;99.90;;;;;;5044422;28;20216;-55
2022/03/06 08:34:39;;;;;;;5.75;4.28;;;6.30;99.90;;;;;;5051398;28;20270;-51
2022/03/06 08:37:08;;;;;;;5.25;4.20;;;6.30;99.90;;;;;;5043496;28;20191;-53
2022/03/06 08:39:37;;;;;;;4.93;3.50;;;6.30;99.90;;;;;;5051904;28;20216;-53
2022/03/06 08:42:06;;;;;;;5.10;4.00;;;6.30;99.90;;;;;;5052753;28;20679;-53
2022/03/06 08:44:35;;;;;;;4.88;4.32;;;6.30;99.90;;;;;;5041772;28;20283;-53
2022/03/06 08:47:06;;;;;;;5.63;4.40;;;6.30;99.90;;;;;;5033077;28;20189;-52
2022/03/06 08:49:34;;;;;;;4.70;3.80;;;6.30;99.90;;;;;;5048856;28;20220;-53
2022/03/06 08:52:04;;;;;;;5.25;3.95;;;6.30;99.90;;;;;;5034691;28;20288;-53
2022/03/06 08:54:34;;;;;;;6.38;4.18;;;6.30;99.90;;;;;;5043194;28;20224;-53
2022/03/06 08:57:04;;;;;;;4.65;4.20;;;6.30;99.90;;;;;;5052817;28;20184;-53
2022/03/06 08:59:32;;;;;;;5.45;4.18;;;6.30;99.90;;;;;;5045924;28;20308;-54
2022/03/06 09:02:01;;;;;;;5.85;4.43;;;6.30;99.90;;;;;;5032751;28;20221;-54
2022/03/06 09:04:33;;;;;;;6.28;4.25;;;6.30;99.90;;;;;;5048895;28;20228;-54
2022/03/06 09:07:02;;;;;;;5.00;3.97;;;6.30;99.90;;;;;;5047341;28;20196;-54
2022/03/06 09:09:31;;;;;;;4.72;4.05;;;6.40;99.90;;;;;;5051872;28;20220;-54
2022/03/06 09:11:59;;;;;;;8.07;5.38;;;6.40;99.90;;;;;;5052121;28;20205;-54
2022/03/06 09:14:28;;;;;;;4.70;4.25;;;6.40;99.90;;;;;;5049844;28;20679;-54
2022/03/06 09:16:57;;;;;;;5.22;4.60;;;6.40;99.90;;;;;;5052451;28;20227;-53
2022/03/06 09:19:26;;;;;;;5.95;5.45;;;6.40;99.90;;;;;;5051530;28;20770;-53
2022/03/06 09:21:55;;;;;;;6.32;4.45;;;6.40;99.90;;;;;;5044026;28;20262;-53
2022/03/06 09:24:24;;;;;;;4.90;4.40;;;6.40;99.90;;;;;;5051344;28;20213;-52
2022/03/06 09:26:52;;;;;;;5.85;4.90;;;6.40;99.90;;;;;;5050372;28;20197;-53
2022/03/06 09:29:21;;;;;;;4.40;4.00;;;6.40;99.90;;;;;;5048887;28;20342;-54
2022/03/06 09:31:50;;;;;;;4.32;3.92;;;6.40;99.90;;;;;;5047415;28;21882;-53
2022/03/06 09:34:18;;;;;;;4.95;4.20;;;6.40;99.90;;;;;;5047275;28;20220;-53
2022/03/06 09:36:47;;;;;;;5.57;4.40;;;6.40;99.90;;;;;;5050523;28;20204;-54
2022/03/06 09:39:18;;;;;;;5.55;4.03;;;6.40;99.90;;;;;;5042203;28;20807;-52
2022/03/06 09:41:49;;;;;;;5.05;4.07;;;6.40;99.90;;;;;;5042134;28;20212;-53
2022/03/06 09:44:18;;;;;;;7.47;4.28;;;6.40;99.90;;;;;;5049142;28;20702;-54
2022/03/06 09:46:48;;;;;;;6.28;5.10;;;6.40;99.90;;;;;;5051326;28;20193;-54
2022/03/06 09:49:17;;;;;;;6.03;4.78;;;6.40;99.90;;;;;;5051052;28;20408;-52
2022/03/06 09:51:46;;;;;;;6.60;4.43;;;6.40;99.90;;;;;;5044963;28;20212;-54
2022/03/06 09:54:16;;;;;;;5.40;4.30;;;6.40;99.90;;;;;;5050683;28;20243;-53
2022/03/06 09:56:48;;;;;;;4.70;4.20;;;6.40;99.90;;;;;;5051299;28;20291;-54
2022/03/06 09:59:16;;;;;;;5.85;4.30;;;6.40;99.90;;;;;;5051114;28;20349;-53
2022/03/06 10:01:47;;;;;;;4.80;4.30;;;6.30;99.90;;;;;;5049355;28;20611;-54
2022/03/06 10:04:29;;;;;;;5.30;4.70;;;6.30;99.90;;;;;;5032036;28;20223;-53
2022/03/06 10:07:00;;;;;;;5.32;4.18;;;6.30;99.90;;;;;;5043248;28;20203;-54
2022/03/06 10:09:29;;;;;;;4.90;4.40;;;6.30;99.90;;;;;;5050547;28;20231;-54
2022/03/06 10:11:59;;;;;;;4.85;4.13;;;6.30;99.90;;;;;;5050751;28;20231;-53
2022/03/06 10:14:41;;;;;;;5.38;3.90;;;6.30;99.90;;;;;;5046343;28;20228;-54
2022/03/06 10:17:11;;;;;;;4.85;3.90;;;6.30;99.90;;;;;;5050391;28;20192;-53
2022/03/06 10:19:55;;;;;;;4.43;3.92;;;6.30;99.90;;;;;;5050588;28;20220;-54
2022/03/06 10:22:25;;;;;;;4.57;3.45;;;6.30;99.90;;;;;;5049082;28;20266;-54
2022/03/06 10:24:59;;;;;;;3.90;3.50;;;6.30;99.90;;;;;;5048996;28;20587;-56
2022/03/06 10:27:46;;;;;;;3.60;3.25;;;6.30;99.90;;;;;;5050949;28;20219;-55
2022/03/06 10:30:30;;;;;;;4.93;3.80;;;6.30;99.90;;;;;;5030792;28;20232;-52
2022/03/06 10:32:59;;;;;;;6.68;4.43;;;6.30;99.90;;;;;;5030149;28;20767;-53
2022/03/06 10:35:35;;;;;;;6.97;4.57;;;6.30;99.90;;;;;;5044465;28;20193;-54
2022/03/06 10:38:22;;;;;;;5.57;4.28;;;6.30;99.90;;;;;;5032006;28;20218;-53
2022/03/06 10:40:51;;;;;;;5.55;3.92;;;6.30;99.90;;;;;;5050741;28;20646;-52
2022/03/06 10:43:22;;;;;;;5.45;4.63;;;6.30;99.90;;;;;;5049780;28;20224;-53
2022/03/06 10:45:52;;;;;;;4.63;3.83;;;6.30;99.90;;;;;;5045381;28;20196;-56
2022/03/06 10:48:22;;;;;;;5.50;4.50;;;6.30;99.90;;;;;;5049014;28;20247;-53
2022/03/06 10:51:00;;;;;;;7.95;4.55;;;6.30;99.90;;;;;;5042581;28;20228;-54
2022/03/06 10:53:29;;;;;;;6.63;4.10;;;6.30;99.90;;;;;;5033837;28;20282;-53
2022/03/06 10:56:08;;;;;;;5.18;3.55;;;6.30;99.90;;;;;;5048304;28;20652;-53
2022/03/06 10:58:39;;;;;;;5.63;4.13;;;6.30;99.90;;;;;;5049233;28;20255;-54
2022/03/06 11:01:29;;;;;;;5.32;4.82;;;6.30;99.90;;;;;;5041476;28;20216;-54
2022/03/06 11:04:01;;;;;;;5.60;4.15;;;6.30;99.90;;;;;;5049479;28;20299;-54
2022/03/06 11:06:33;;;;;;;4.63;3.83;;;6.30;99.90;;;;;;5044828;28;20674;-54
2022/03/06 11:09:03;;;;;;;5.18;3.70;;;6.30;99.90;;;;;;5049493;28;20216;-53
2022/03/06 11:11:33;;;;;;;4.80;4.35;;;6.30;99.90;;;;;;5049976;28;20266;-54
2022/03/06 11:14:03;;;;;;;5.88;4.28;;;6.30;99.90;;;;;;5043220;28;20255;-54
2022/03/06 11:16:32;;;;;;;5.63;4.60;;;6.30;99.90;;;;;;5050341;28;20196;-53
2022/03/06 11:19:00;;;;;;;7.03;5.00;;;6.30;99.90;;;;;;5049266;28;20293;-53
2022/03/06 11:21:29;;;;;;;5.03;4.53;;;6.30;99.90;;;;;;5039215;28;20208;-54
2022/03/06 11:24:01;;;;;;;5.50;4.40;;;6.30;99.90;;;;;;5047268;28;20231;-53
2022/03/06 11:27:02;;;;;;;4.30;3.90;;;6.30;99.90;;;;;;5050250;28;20242;-54
2022/03/06 11:29:56;;;;;;;4.72;4.18;;;6.30;99.90;;;;;;5045541;28;20243;-53
2022/03/06 11:32:31;;;;;;;5.72;4.28;;;6.30;99.90;;;;;;5030313;28;20214;-52
2022/03/06 11:35:08;;;;;;;4.85;4.38;;;6.30;99.90;;;;;;5029291;28;20255;-53
2022/03/06 11:37:49;;;;;;;5.57;4.57;;;6.20;99.90;;;;;;5039552;28;20275;-52
2022/03/06 11:40:48;;;;;;;5.07;3.60;;;6.20;99.90;;;;;;5050383;28;20243;-53
2022/03/06 11:43:44;;;;;;;5.35;4.10;;;6.20;99.90;;;;;;5049344;28;20894;-54
2022/03/06 11:46:17;;;;;;;5.55;4.97;;;6.20;99.90;;;;;;5046180;28;20287;-54
2022/03/06 11:49:13;;;;;;;5.50;3.80;;;6.20;99.90;;;;;;5049477;28;20719;-54
2022/03/06 11:51:47;;;;;;;4.57;4.07;;;6.20;99.90;;;;;;5047241;28;20299;-54
2022/03/06 11:54:40;;;;;;;5.78;4.53;;;6.20;99.90;;;;;;5049949;28;20220;-53
2022/03/06 11:57:09;;;;;;;6.00;4.43;;;6.20;99.90;;;;;;5051090;28;20283;-55
2022/03/06 11:59:44;;;;;;;5.22;4.32;;;6.20;99.90;;;;;;5051364;28;20228;-52
2022/03/06 12:02:21;;;;;;;5.00;4.50;;;6.20;99.90;;;;;;5053037;28;20216;-53
2022/03/06 12:04:57;;;;;;;4.35;3.95;;;6.20;99.90;;;;;;5040814;28;20250;-55
2022/03/06 12:07:28;;;;;;;5.28;4.30;;;6.20;99.90;;;;;;5049999;28;20224;-54
2022/03/06 12:09:56;;;;;;;4.30;3.90;;;6.20;99.90;;;;;;5051902;28;20240;-54
2022/03/06 12:12:25;;;;;;;6.05;4.63;;;6.20;99.90;;;;;;5053166;28;20231;-53
2022/03/06 12:14:56;;;;;;;5.15;3.47;;;6.20;99.90;;;;;;5049343;28;20287;-53
2022/03/06 12:17:35;;;;;;;5.20;4.20;;;6.20;99.90;;;;;;5051640;28;20184;-52
2022/03/06 12:20:32;;;;;;;4.22;3.65;;;6.20;99.90;;;;;;5053191;28;20212;-54
2022/03/06 12:23:06;;;;;;;5.50;4.50;;;6.20;99.90;;;;;;5041495;28;20300;-53
2022/03/06 12:25:37;;;;;;;6.45;4.82;;;6.20;99.90;;;;;;5052335;28;20659;-53
2022/03/06 12:28:19;;;;;;;6.00;4.28;;;6.30;99.90;;;;;;5049684;28;20212;-54
2022/03/06 12:30:49;;;;;;;5.70;4.28;;;6.20;99.90;;;;;;5032564;28;20688;-54
2022/03/06 12:33:34;;;;;;;4.88;3.72;;;6.20;99.90;;;;;;5032254;28;20247;-54
2022/03/06 12:36:18;;;;;;;5.43;4.13;;;6.20;99.90;;;;;;5040027;28;20196;-53
2022/03/06 12:38:47;;;;;;;4.60;3.80;;;6.20;99.90;;;;;;5051286;28;20214;-54
2022/03/06 12:41:15;;;;;;;5.20;4.15;;;6.20;99.90;;;;;;5052292;28;20200;-54
2022/03/06 12:43:49;;;;;;;5.40;4.25;;;6.20;99.90;;;;;;5050472;28;20212;-53
2022/03/06 12:46:19;;;;;;;4.55;4.07;;;6.20;99.90;;;;;;5040931;28;20602;-53
2022/03/06 12:48:50;;;;;;;7.45;4.63;;;6.20;99.90;;;;;;5050558;28;20631;-53
2022/03/06 12:51:28;;;;;;;5.60;4.68;;;6.20;99.90;;;;;;5048079;28;20719;-54
2022/03/06 12:53:56;;;;;;;4.22;3.83;;;6.20;99.90;;;;;;5051697;28;20482;-52
2022/03/06 12:56:35;;;;;;;6.15;4.82;;;6.30;99.90;;;;;;5051739;28;20250;-53
2022/03/06 12:59:10;;;;;;;6.80;5.00;;;6.30;99.90;;;;;;5041148;28;20213;-55
2022/03/06 13:01:42;;;;;;;4.63;4.13;;;6.20;99.90;;;;;;5050511;28;20208;-52
2022/03/06 13:04:13;;;;;;;5.60;4.32;;;6.30;99.90;;;;;;5050903;28;20220;-52
2022/03/06 13:06:41;;;;;;;5.05;4.47;;;6.20;99.90;;;;;;5038816;28;20212;-53
2022/03/06 13:09:23;;;;;;;6.05;5.10;;;6.30;99.90;;;;;;5051580;28;20259;-53
2022/03/06 13:11:52;;;;;;;6.45;4.75;;;6.30;99.90;;;;;;5051308;28;20216;-52
2022/03/06 13:14:33;;;;;;;6.18;4.35;;;6.30;99.90;;;;;;5051074;28;20224;-52
2022/03/06 13:17:06;;;;;;;6.88;4.60;;;6.30;99.90;;;;;;5035937;28;20279;-53